Time;durP1;ratioP1;P1;durP2;ratioP2;P2;SDS_P1;SDS_P2;PMS_P1;PMS_P2;Temp;Humidity;BMP_temperature;BMP_pressure;BME280_temperature;BME280_humidity;BME280_pressure;Samples;Min_cycle;Max_cycle;Signal;HPM_P1;HPM_P2
2024/01/17 00:01:58;;;;;;;16.30;13.40;;;-0.20;99.90;;;;;;5073626;28;20263;-71
2024/01/17 00:04:24;;;;;;;17.40;12.50;;;-0.30;99.90;;;;;;5073124;28;20408;-71
2024/01/17 00:06:50;;;;;;;17.00;12.57;;;-0.30;99.90;;;;;;5055686;28;20404;-71
2024/01/17 00:09:15;;;;;;;16.00;12.23;;;-0.20;99.90;;;;;;5073631;28;20817;-71
2024/01/17 00:11:44;;;;;;;15.60;13.30;;;-0.20;99.90;;;;;;5073749;28;20290;-71
2024/01/17 00:14:11;;;;;;;17.00;12.20;;;-0.20;99.90;;;;;;5055557;28;20226;-71
2024/01/17 00:16:37;;;;;;;12.90;11.57;;;-0.30;99.90;;;;;;5072776;28;20394;-72
2024/01/17 00:19:02;;;;;;;14.37;10.93;;;-0.40;99.90;;;;;;5073769;28;20396;-72
2024/01/17 00:21:28;;;;;;;14.30;11.63;;;-0.40;99.90;;;;;;5073387;28;20423;-72
2024/01/17 00:23:54;;;;;;;15.27;13.03;;;-0.40;99.90;;;;;;5073429;28;20195;-72
2024/01/17 00:26:20;;;;;;;14.33;11.67;;;-0.40;99.90;;;;;;5073424;28;20189;-72
2024/01/17 00:28:45;;;;;;;15.60;12.37;;;-0.30;99.90;;;;;;5073814;28;20165;-72
2024/01/17 00:31:11;;;;;;;18.57;13.40;;;-0.40;99.90;;;;;;5073656;28;20256;-71
2024/01/17 00:33:36;;;;;;;19.70;13.50;;;-0.40;99.90;;;;;;5073685;28;20188;-72
2024/01/17 00:36:02;;;;;;;17.20;13.57;;;-0.50;99.90;;;;;;5073251;28;20174;-72
2024/01/17 00:38:28;;;;;;;15.23;13.23;;;-0.50;99.90;;;;;;5073694;28;20185;-71
2024/01/17 00:40:54;;;;;;;17.30;13.50;;;-0.40;99.90;;;;;;5073064;28;20927;-71
2024/01/17 00:43:20;;;;;;;19.73;13.20;;;-0.30;99.90;;;;;;5072896;28;20242;-71
2024/01/17 00:45:45;;;;;;;17.23;13.80;;;-0.20;99.90;;;;;;5073123;28;20172;-71
2024/01/17 00:48:13;;;;;;;16.30;13.63;;;-0.10;99.90;;;;;;5073036;28;20780;-69
2024/01/17 00:50:39;;;;;;;14.20;11.70;;;-0.10;99.90;;;;;;5073584;28;20155;-72
2024/01/17 00:53:05;;;;;;;20.57;13.00;;;0.00;99.90;;;;;;5072890;28;20441;-72
2024/01/17 00:55:31;;;;;;;13.40;11.37;;;0.00;99.90;;;;;;5072976;28;20928;-71
2024/01/17 00:57:57;;;;;;;16.37;14.47;;;-0.10;99.90;;;;;;5073218;28;20407;-71
2024/01/17 01:00:22;;;;;;;20.53;13.70;;;-0.20;99.90;;;;;;5073140;28;20179;-71
2024/01/17 01:02:48;;;;;;;14.40;12.70;;;-0.30;99.90;;;;;;5073244;28;20212;-72
2024/01/17 01:05:14;;;;;;;15.63;13.13;;;-0.40;99.90;;;;;;5072731;28;20231;-72
2024/01/17 01:07:40;;;;;;;16.93;14.23;;;-0.40;99.90;;;;;;5072829;28;20169;-72
2024/01/17 01:10:06;;;;;;;13.73;12.30;;;-0.30;99.90;;;;;;5073160;28;20896;-72
2024/01/17 01:12:32;;;;;;;18.53;14.67;;;-0.30;99.90;;;;;;5054762;28;20193;-71
2024/01/17 01:14:57;;;;;;;17.73;13.23;;;-0.20;99.90;;;;;;5072724;28;20451;-71
2024/01/17 01:17:23;;;;;;;15.80;11.80;;;-0.20;99.90;;;;;;5054672;28;20443;-71
2024/01/17 01:19:48;;;;;;;18.53;14.23;;;0.10;99.90;;;;;;5072274;28;20170;-71
2024/01/17 01:22:14;;;;;;;18.83;14.07;;;0.20;99.90;;;;;;5072781;28;20213;-72
2024/01/17 01:24:39;;;;;;;18.20;14.70;;;0.40;99.90;;;;;;5054777;28;20218;-72
2024/01/17 01:27:05;;;;;;;17.10;13.63;;;0.50;99.90;;;;;;5072562;28;20174;-72
2024/01/17 01:29:30;;;;;;;16.00;13.10;;;0.50;99.90;;;;;;5072853;28;20166;-72
2024/01/17 01:31:56;;;;;;;15.47;13.63;;;0.60;99.90;;;;;;5072537;28;20201;-72
2024/01/17 01:34:22;;;;;;;16.13;13.37;;;0.70;99.90;;;;;;5072788;28;20208;-71
2024/01/17 01:36:48;;;;;;;21.10;14.40;;;0.60;99.90;;;;;;5072402;28;20181;-72
2024/01/17 01:39:14;;;;;;;18.73;13.47;;;0.50;99.90;;;;;;5072532;28;20406;-72
2024/01/17 01:41:40;;;;;;;14.47;12.93;;;0.30;99.90;;;;;;5072617;28;20208;-72
2024/01/17 01:44:06;;;;;;;17.30;13.93;;;0.30;99.90;;;;;;5072370;28;20565;-71
2024/01/17 01:46:32;;;;;;;17.97;13.20;;;0.20;99.90;;;;;;5072597;28;20175;-72
2024/01/17 01:48:58;;;;;;;19.97;14.23;;;0.20;99.90;;;;;;5075997;28;20172;-72
2024/01/17 01:51:27;;;;;;;18.73;13.30;;;0.20;99.90;;;;;;5076185;28;20931;-72
2024/01/17 01:53:57;;;;;;;15.53;12.60;;;0.30;99.90;;;;;;5076351;28;20427;-72
2024/01/17 01:56:26;;;;;;;18.60;14.70;;;0.40;99.90;;;;;;5076264;28;20830;-72
2024/01/17 01:58:54;;;;;;;16.63;14.57;;;0.50;99.90;;;;;;5076075;28;20823;-72
2024/01/17 02:01:20;;;;;;;16.77;12.90;;;0.60;99.90;;;;;;5075951;28;20414;-70
2024/01/17 02:03:47;;;;;;;18.83;13.87;;;0.50;99.90;;;;;;5075860;28;20460;-70
2024/01/17 02:06:14;;;;;;;16.50;13.10;;;0.60;99.90;;;;;;5076084;28;20487;-70
2024/01/17 02:08:39;;;;;;;13.57;11.80;;;0.70;99.90;;;;;;5075914;28;20767;-70
2024/01/17 02:11:06;;;;;;;15.07;12.77;;;0.70;99.90;;;;;;5075268;28;20399;-70
2024/01/17 02:13:32;;;;;;;21.60;14.70;;;0.60;99.90;;;;;;5075429;28;20196;-70
2024/01/17 02:16:00;;;;;;;15.87;12.77;;;0.70;99.90;;;;;;5075753;28;20400;-70
2024/01/17 02:18:26;;;;;;;18.13;13.27;;;0.70;99.90;;;;;;5075973;28;20170;-71
2024/01/17 02:20:51;;;;;;;17.07;12.87;;;0.70;99.90;;;;;;5075621;28;20925;-70
2024/01/17 02:23:27;;;;;;;18.50;13.67;;;0.90;99.90;;;;;;5075443;28;20263;-70
2024/01/17 02:25:54;;;;;;;16.00;12.83;;;1.00;99.90;;;;;;5075852;28;20663;-70
2024/01/17 02:28:20;;;;;;;16.47;12.93;;;1.00;99.90;;;;;;5075735;28;20454;-71
2024/01/17 02:30:46;;;;;;;15.93;12.50;;;0.90;99.90;;;;;;5058161;28;20431;-71
2024/01/17 02:33:13;;;;;;;17.63;13.80;;;0.90;99.90;;;;;;5075361;28;20428;-70
2024/01/17 02:35:39;;;;;;;16.77;12.50;;;1.00;99.90;;;;;;5075357;28;20215;-70
2024/01/17 02:38:04;;;;;;;18.23;12.90;;;1.00;99.90;;;;;;5075839;28;20781;-70
2024/01/17 02:40:30;;;;;;;15.10;12.90;;;1.10;99.90;;;;;;5075527;28;20166;-71
2024/01/17 02:42:55;;;;;;;16.03;13.37;;;1.10;99.90;;;;;;5075061;28;20206;-72
2024/01/17 02:45:21;;;;;;;14.57;12.13;;;1.20;99.90;;;;;;5074962;28;20530;-70
2024/01/17 02:47:47;;;;;;;14.33;11.13;;;1.30;99.90;;;;;;5075206;28;20165;-71
2024/01/17 02:50:15;;;;;;;13.70;11.87;;;1.30;99.90;;;;;;5075119;28;20396;-73
2024/01/17 02:52:44;;;;;;;13.33;11.93;;;1.20;99.90;;;;;;5057108;28;20225;-69
2024/01/17 02:55:11;;;;;;;14.30;11.63;;;1.30;99.90;;;;;;5074737;28;20403;-71
2024/01/17 02:57:40;;;;;;;17.57;12.60;;;1.30;99.90;;;;;;5075033;28;20412;-72
2024/01/17 03:00:06;;;;;;;15.10;12.57;;;1.40;99.90;;;;;;5074829;28;20405;-71
2024/01/17 03:02:32;;;;;;;14.77;11.00;;;1.50;99.90;;;;;;5074916;28;20451;-71
2024/01/17 03:04:58;;;;;;;19.20;13.77;;;1.30;99.90;;;;;;5075058;28;20408;-70
2024/01/17 03:07:23;;;;;;;18.93;13.67;;;1.20;99.90;;;;;;5075117;28;20166;-71
2024/01/17 03:09:49;;;;;;;19.80;14.57;;;1.20;99.90;;;;;;5074759;28;20158;-71
2024/01/17 03:12:14;;;;;;;19.00;15.03;;;1.10;99.90;;;;;;5074825;28;20278;-70
2024/01/17 03:14:41;;;;;;;17.03;15.23;;;1.00;99.90;;;;;;5074817;28;20185;-71
2024/01/17 03:17:06;;;;;;;23.00;17.47;;;0.80;99.90;;;;;;5074660;28;20764;-71
2024/01/17 03:19:32;;;;;;;21.67;17.17;;;0.80;99.90;;;;;;5074415;28;20249;-71
2024/01/17 03:21:57;;;;;;;20.30;15.20;;;0.70;99.90;;;;;;5074634;28;20197;-71
2024/01/17 03:24:24;;;;;;;19.87;15.70;;;0.80;99.90;;;;;;5074313;28;20755;-71
2024/01/17 03:26:50;;;;;;;20.97;15.87;;;1.00;99.90;;;;;;5074360;28;20479;-71
2024/01/17 03:29:15;;;;;;;18.60;15.23;;;0.90;99.90;;;;;;5074399;28;20170;-70
2024/01/17 03:31:41;;;;;;;18.77;15.20;;;0.50;99.90;;;;;;5074184;28;20166;-71
2024/01/17 03:34:06;;;;;;;21.43;16.47;;;0.20;99.90;;;;;;5074171;28;20170;-71
2024/01/17 03:36:32;;;;;;;18.97;16.03;;;0.40;99.90;;;;;;5074124;28;20170;-71
2024/01/17 03:38:57;;;;;;;19.20;14.00;;;0.60;99.90;;;;;;5074207;28;20261;-70
2024/01/17 03:41:23;;;;;;;18.27;14.33;;;0.70;99.90;;;;;;5074430;28;20210;-71
2024/01/17 03:43:50;;;;;;;16.03;13.80;;;0.70;99.90;;;;;;5097422;22;20276;-69
2024/01/17 03:46:15;;;;;;;15.73;13.97;;;0.80;99.90;;;;;;5074674;28;20262;-70
2024/01/17 03:48:41;;;;;;;20.60;16.93;;;0.90;99.90;;;;;;5056425;28;20491;-69
2024/01/17 03:51:07;;;;;;;18.27;14.30;;;0.90;99.90;;;;;;5074358;28;20166;-69
2024/01/17 03:53:33;;;;;;;17.43;15.57;;;0.90;99.90;;;;;;5074179;28;20794;-69
2024/01/17 03:55:58;;;;;;;21.13;15.33;;;1.10;99.90;;;;;;5074248;28;20166;-69
2024/01/17 03:58:24;;;;;;;22.70;17.07;;;1.30;99.90;;;;;;5074082;28;20158;-69
2024/01/17 04:00:49;;;;;;;19.50;16.07;;;1.40;99.90;;;;;;5074402;28;20172;-69
2024/01/17 04:03:15;;;;;;;19.90;16.40;;;1.50;99.90;;;;;;5074175;28;20205;-68
2024/01/17 04:05:41;;;;;;;18.90;17.03;;;1.50;99.90;;;;;;5073669;28;20250;-68
2024/01/17 04:08:07;;;;;;;18.37;15.90;;;1.50;99.90;;;;;;5073779;28;20162;-68
2024/01/17 04:10:33;;;;;;;19.10;15.60;;;1.50;99.90;;;;;;5055243;28;20435;-69
2024/01/17 04:13:00;;;;;;;18.67;15.27;;;1.40;99.90;;;;;;5073834;28;20196;-69
2024/01/17 04:15:25;;;;;;;22.27;17.37;;;1.50;99.90;;;;;;5073346;28;20173;-69
2024/01/17 04:17:51;;;;;;;18.80;15.83;;;1.60;99.90;;;;;;5073609;28;20427;-69
2024/01/17 04:20:17;;;;;;;18.83;14.20;;;1.70;99.90;;;;;;5073855;28;20227;-69
2024/01/17 04:22:42;;;;;;;22.30;16.37;;;1.80;99.90;;;;;;5073194;28;20221;-68
2024/01/17 04:25:08;;;;;;;20.23;15.43;;;1.80;99.90;;;;;;5073462;28;20166;-69
2024/01/17 04:27:33;;;;;;;17.80;14.33;;;1.90;99.90;;;;;;5073965;28;20233;-69
2024/01/17 04:29:59;;;;;;;18.47;13.70;;;1.90;99.90;;;;;;5073488;28;20162;-69
2024/01/17 04:32:26;;;;;;;16.70;14.17;;;2.00;99.90;;;;;;5073191;28;20289;-69
2024/01/17 04:34:51;;;;;;;15.97;13.90;;;2.10;99.90;;;;;;5073331;28;20167;-69
2024/01/17 04:37:17;;;;;;;15.00;13.40;;;2.20;99.90;;;;;;5073245;28;20487;-69
2024/01/17 04:39:43;;;;;;;20.10;14.60;;;2.20;99.90;;;;;;5073568;28;20253;-68
2024/01/17 04:42:08;;;;;;;17.70;15.33;;;2.20;99.90;;;;;;5072930;28;20192;-69
2024/01/17 04:44:34;;;;;;;16.13;14.43;;;2.20;99.90;;;;;;5073811;28;20296;-69
2024/01/17 04:47:00;;;;;;;19.60;14.97;;;2.20;99.90;;;;;;5073298;28;20165;-67
2024/01/17 04:49:27;;;;;;;23.80;14.53;;;2.30;99.90;;;;;;5073131;28;20400;-68
2024/01/17 04:51:53;;;;;;;20.83;17.10;;;2.30;99.90;;;;;;5073278;28;20162;-67
2024/01/17 04:54:20;;;;;;;16.20;13.90;;;2.30;99.90;;;;;;5054993;28;20428;-68
2024/01/17 04:56:45;;;;;;;18.87;16.57;;;2.40;99.90;;;;;;5073366;28;20769;-67
2024/01/17 04:59:11;;;;;;;19.07;16.70;;;2.40;99.90;;;;;;5072993;28;20396;-68
2024/01/17 05:01:36;;;;;;;15.27;12.63;;;2.40;99.90;;;;;;5072744;28;20645;-68
2024/01/17 05:04:02;;;;;;;18.33;14.67;;;2.40;99.90;;;;;;5073164;28;20616;-68
2024/01/17 05:06:29;;;;;;;18.07;14.60;;;2.30;99.90;;;;;;5054852;28;20201;-68
2024/01/17 05:08:56;;;;;;;18.50;13.87;;;2.40;99.90;;;;;;5073207;28;20528;-67
2024/01/17 05:11:22;;;;;;;15.93;13.60;;;2.50;99.90;;;;;;5073070;28;20844;-69
2024/01/17 05:13:48;;;;;;;18.83;15.00;;;2.50;99.90;;;;;;5068861;28;20484;-69
2024/01/17 05:16:14;;;;;;;23.67;15.13;;;2.60;99.90;;;;;;5045198;28;20424;-67
2024/01/17 05:18:40;;;;;;;19.23;17.13;;;2.30;99.90;;;;;;5063332;28;20475;-70
2024/01/17 05:21:05;;;;;;;17.77;15.90;;;2.10;99.90;;;;;;5063158;28;20957;-68
2024/01/17 05:23:31;;;;;;;23.17;17.53;;;2.10;99.90;;;;;;5073456;28;20578;-69
2024/01/17 05:25:56;;;;;;;19.90;15.07;;;2.00;99.90;;;;;;5076740;28;20169;-67
2024/01/17 05:28:22;;;;;;;19.97;16.53;;;2.00;99.90;;;;;;5077041;28;20177;-66
2024/01/17 05:30:48;;;;;;;18.03;15.87;;;2.20;99.90;;;;;;5076764;28;20166;-68
2024/01/17 05:33:14;;;;;;;23.10;16.83;;;2.30;99.90;;;;;;5076647;28;20455;-68
2024/01/17 05:35:40;;;;;;;20.70;16.10;;;2.50;99.90;;;;;;5054132;28;20174;-68
2024/01/17 05:38:06;;;;;;;25.93;19.20;;;2.50;99.90;;;;;;5067075;28;20181;-68
2024/01/17 05:40:31;;;;;;;21.70;17.20;;;2.50;99.90;;;;;;5067161;28;20420;-69
2024/01/17 05:42:57;;;;;;;20.70;16.50;;;2.50;99.90;;;;;;5066774;28;20472;-69
2024/01/17 05:45:23;;;;;;;21.37;16.47;;;2.50;99.90;;;;;;5067261;28;20508;-70
2024/01/17 05:47:48;;;;;;;22.07;18.00;;;2.60;99.90;;;;;;5066756;28;20205;-68
2024/01/17 05:50:14;;;;;;;22.83;16.50;;;2.70;99.90;;;;;;5067273;28;20277;-69
2024/01/17 05:52:48;;;;;;;17.63;15.73;;;2.70;99.90;;;;;;5058265;28;20288;-68
2024/01/17 05:55:15;;;;;;;27.87;24.07;;;2.70;99.90;;;;;;5076480;28;20862;-69
2024/01/17 05:57:41;;;;;;;28.77;21.20;;;2.70;99.90;;;;;;5075757;28;20457;-69
2024/01/17 06:00:09;;;;;;;27.60;20.67;;;2.70;99.90;;;;;;5076190;28;20500;-68
2024/01/17 06:02:36;;;;;;;22.03;19.40;;;2.70;99.90;;;;;;5076024;28;20198;-69
2024/01/17 06:05:02;;;;;;;22.47;17.53;;;2.80;99.90;;;;;;5076123;28;20428;-68
2024/01/17 06:07:28;;;;;;;22.50;17.80;;;2.80;99.90;;;;;;5076010;28;20420;-69
2024/01/17 06:09:54;;;;;;;22.00;17.20;;;2.90;99.90;;;;;;5076552;28;20428;-69
2024/01/17 06:12:19;;;;;;;25.40;17.73;;;3.00;99.90;;;;;;5076161;28;20219;-69
2024/01/17 06:14:45;;;;;;;20.57;17.87;;;3.00;99.90;;;;;;5075867;28;20174;-68
2024/01/17 06:17:11;;;;;;;23.27;20.63;;;3.10;99.90;;;;;;5075810;28;20162;-67
2024/01/17 06:19:37;;;;;;;20.13;17.80;;;3.10;99.90;;;;;;5075772;28;20162;-68
2024/01/17 06:22:02;;;;;;;21.60;16.67;;;3.10;99.90;;;;;;5075574;28;20243;-68
2024/01/17 06:24:28;;;;;;;20.17;17.00;;;3.10;99.90;;;;;;5075755;28;20169;-68
2024/01/17 06:26:54;;;;;;;22.53;17.47;;;3.10;99.90;;;;;;5075540;28;20169;-68
2024/01/17 06:29:19;;;;;;;18.47;16.17;;;3.20;99.90;;;;;;5058442;28;20162;-67
2024/01/17 06:31:45;;;;;;;20.80;17.70;;;3.20;99.90;;;;;;5075782;28;20162;-68
2024/01/17 06:34:10;;;;;;;20.67;16.70;;;3.30;99.90;;;;;;5075249;28;20298;-66
2024/01/17 06:36:36;;;;;;;19.60;15.40;;;3.20;99.90;;;;;;5075561;28;20190;-67
2024/01/17 06:39:01;;;;;;;21.80;17.20;;;3.20;99.90;;;;;;5075801;28;20498;-68
2024/01/17 06:41:27;;;;;;;19.00;16.83;;;3.20;99.90;;;;;;5075322;28;20695;-68
2024/01/17 06:43:53;;;;;;;17.63;15.70;;;3.20;99.90;;;;;;5055018;28;20214;-68
2024/01/17 06:46:18;;;;;;;18.20;14.83;;;3.30;99.90;;;;;;5037250;28;20638;-68
2024/01/17 06:48:44;;;;;;;18.00;14.90;;;3.30;99.90;;;;;;5055507;28;20190;-68
2024/01/17 06:51:10;;;;;;;19.43;17.07;;;3.40;99.90;;;;;;5055350;28;20646;-68
2024/01/17 06:53:35;;;;;;;19.40;16.07;;;3.40;99.90;;;;;;5072734;28;20269;-67
2024/01/17 06:56:01;;;;;;;17.17;15.27;;;3.40;99.90;;;;;;5075184;28;20518;-68
2024/01/17 06:58:26;;;;;;;26.97;16.97;;;3.40;99.90;;;;;;5075711;28;20173;-68
2024/01/17 07:00:53;;;;;;;18.30;16.37;;;3.40;99.90;;;;;;5075807;28;20280;-67
2024/01/17 07:03:19;;;;;;;20.47;17.37;;;3.50;99.90;;;;;;5074804;28;20572;-68
2024/01/17 07:05:45;;;;;;;17.23;15.13;;;3.50;99.90;;;;;;5074932;28;20403;-68
2024/01/17 07:08:10;;;;;;;23.50;17.50;;;3.40;99.90;;;;;;5074863;28;20407;-68
2024/01/17 07:10:36;;;;;;;19.03;16.70;;;3.50;99.90;;;;;;5075157;28;20629;-69
2024/01/17 07:13:02;;;;;;;21.23;16.63;;;3.50;99.90;;;;;;5056813;28;20190;-68
2024/01/17 07:15:27;;;;;;;16.23;14.47;;;3.60;99.90;;;;;;5074808;28;20165;-68
2024/01/17 07:17:53;;;;;;;18.30;14.77;;;3.60;99.90;;;;;;5057002;28;20192;-69
2024/01/17 07:20:19;;;;;;;18.70;14.67;;;3.60;99.90;;;;;;5074271;28;20166;-68
2024/01/17 07:22:44;;;;;;;19.00;14.83;;;3.60;99.90;;;;;;5074400;28;20236;-68
2024/01/17 07:25:12;;;;;;;21.13;17.60;;;3.60;99.90;;;;;;5056772;28;20223;-68
2024/01/17 07:27:44;;;;;;;18.53;16.53;;;3.70;99.90;;;;;;5074599;28;20166;-68
2024/01/17 07:30:13;;;;;;;22.37;16.30;;;3.70;99.90;;;;;;5074444;28;20396;-68
2024/01/17 07:32:39;;;;;;;17.70;14.10;;;3.60;99.90;;;;;;5074280;28;20432;-69
2024/01/17 07:35:06;;;;;;;18.53;13.60;;;3.70;99.90;;;;;;5074666;28;20785;-68
2024/01/17 07:37:31;;;;;;;17.03;15.00;;;3.70;99.90;;;;;;5074329;28;20436;-68
2024/01/17 07:39:57;;;;;;;19.73;16.77;;;3.80;99.90;;;;;;5074286;28;20931;-68
2024/01/17 07:42:23;;;;;;;22.10;16.33;;;3.90;99.90;;;;;;5073988;28;20206;-69
2024/01/17 07:44:49;;;;;;;17.73;15.27;;;3.90;99.90;;;;;;5073275;28;20499;-68
2024/01/17 07:47:15;;;;;;;19.97;17.23;;;3.90;99.90;;;;;;5074172;28;20408;-68
2024/01/17 07:49:41;;;;;;;20.48;17.67;;;3.90;99.90;;;;;;5074404;28;20430;-69
2024/01/17 07:52:07;;;;;;;17.70;15.47;;;4.00;99.90;;;;;;5073930;28;20173;-68
2024/01/17 07:54:33;;;;;;;18.43;16.43;;;4.00;99.90;;;;;;5074203;28;20777;-69
2024/01/17 07:56:58;;;;;;;18.87;16.80;;;4.10;99.90;;;;;;5074218;28;20516;-67
2024/01/17 07:59:26;;;;;;;21.30;16.63;;;4.20;99.90;;;;;;5073904;28;20550;-68
2024/01/17 08:01:52;;;;;;;20.70;15.53;;;4.20;99.90;;;;;;5073785;28;20162;-67
2024/01/17 08:04:17;;;;;;;20.37;15.97;;;4.00;99.90;;;;;;5073989;28;20424;-67
2024/01/17 08:06:43;;;;;;;17.90;16.00;;;4.00;99.90;;;;;;5074169;28;20400;-67
2024/01/17 08:09:21;;;;;;;21.57;16.40;;;4.00;99.90;;;;;;5073901;28;20170;-68
2024/01/17 08:11:47;;;;;;;19.70;16.07;;;4.10;99.90;;;;;;5073735;28;20472;-67
2024/01/17 08:14:13;;;;;;;23.57;18.77;;;4.20;99.90;;;;;;5056027;28;20421;-68
2024/01/17 08:16:39;;;;;;;19.40;17.37;;;4.30;99.90;;;;;;5073559;28;20510;-67
2024/01/17 08:19:05;;;;;;;21.03;15.60;;;4.20;99.90;;;;;;5055465;28;20641;-69
2024/01/17 08:21:31;;;;;;;18.13;15.47;;;4.20;99.90;;;;;;5055546;28;20170;-69
2024/01/17 08:23:58;;;;;;;19.80;16.50;;;4.20;99.90;;;;;;5073048;28;20452;-68
2024/01/17 08:26:25;;;;;;;20.47;16.40;;;3.70;99.90;;;;;;5073608;28;20744;-67
2024/01/17 08:28:50;;;;;;;20.23;17.13;;;3.70;99.90;;;;;;5073595;28;20483;-67
2024/01/17 08:31:16;;;;;;;19.80;15.70;;;3.50;99.90;;;;;;5073432;28;20431;-68
2024/01/17 08:33:42;;;;;;;20.10;15.77;;;3.60;99.90;;;;;;5073176;28;20198;-67
2024/01/17 08:36:08;;;;;;;20.10;15.80;;;3.60;99.90;;;;;;5072696;28;20413;-67
2024/01/17 08:38:34;;;;;;;18.37;15.53;;;3.80;99.90;;;;;;5073278;28;20256;-67
2024/01/17 08:41:00;;;;;;;24.30;16.97;;;3.80;99.90;;;;;;5073156;28;20269;-67
2024/01/17 08:43:26;;;;;;;21.90;17.50;;;3.90;99.90;;;;;;5072733;28;20534;-65
2024/01/17 08:45:51;;;;;;;26.53;17.40;;;3.80;99.90;;;;;;5073064;28;20451;-67
2024/01/17 08:48:17;;;;;;;18.93;16.80;;;3.90;99.90;;;;;;5073255;28;20250;-65
2024/01/17 08:50:42;;;;;;;18.00;16.10;;;3.90;99.90;;;;;;5073164;28;20157;-64
2024/01/17 08:53:09;;;;;;;22.43;17.00;;;3.80;99.90;;;;;;5073145;28;20194;-65
2024/01/17 08:55:34;;;;;;;23.73;17.40;;;3.90;99.90;;;;;;5073128;28;20158;-66
2024/01/17 08:58:00;;;;;;;22.30;16.40;;;3.90;99.90;;;;;;5072817;28;20416;-67
2024/01/17 09:00:25;;;;;;;20.47;17.13;;;3.70;99.90;;;;;;5073295;28;20170;-65
2024/01/17 09:02:51;;;;;;;18.70;15.13;;;3.70;99.90;;;;;;5072903;28;20202;-66
2024/01/17 09:05:18;;;;;;;19.43;15.67;;;3.80;99.90;;;;;;5073165;28;20280;-67
2024/01/17 09:07:45;;;;;;;21.93;16.33;;;3.90;99.90;;;;;;5073426;28;20165;-67
2024/01/17 09:10:13;;;;;;;19.60;16.30;;;3.80;99.90;;;;;;5073081;28;20400;-65
2024/01/17 09:12:38;;;;;;;13.70;11.33;;;3.90;99.90;;;;;;5072931;28;20438;-67
2024/01/17 09:15:05;;;;;;;17.53;13.50;;;4.00;99.90;;;;;;5072869;28;20487;-66
2024/01/17 09:17:32;;;;;;;14.57;12.63;;;4.20;99.90;;;;;;5072769;28;20174;-66
2024/01/17 09:19:58;;;;;;;16.00;11.40;;;4.10;99.90;;;;;;5072700;28;20440;-67
2024/01/17 09:22:23;;;;;;;13.20;10.73;;;4.30;99.90;;;;;;5072566;28;20880;-66
2024/01/17 09:24:49;;;;;;;19.73;15.80;;;4.50;99.90;;;;;;5073104;28;20162;-67
2024/01/17 09:27:14;;;;;;;21.37;15.27;;;4.40;99.90;;;;;;5072775;28;20166;-67
2024/01/17 09:29:40;;;;;;;17.73;13.13;;;4.40;99.90;;;;;;5072802;28;20197;-65
2024/01/17 09:32:06;;;;;;;18.80;13.07;;;4.40;99.90;;;;;;5072518;28;20182;-67
2024/01/17 09:34:36;;;;;;;18.53;14.50;;;4.40;99.90;;;;;;5072677;28;20173;-67
2024/01/17 09:37:02;;;;;;;16.10;12.43;;;4.50;99.90;;;;;;5072642;28;20150;-68
2024/01/17 09:39:29;;;;;;;18.13;13.90;;;4.60;99.90;;;;;;5072650;28;20498;-68
2024/01/17 09:41:54;;;;;;;14.13;12.47;;;4.70;99.90;;;;;;5072349;28;20450;-67
2024/01/17 09:44:20;;;;;;;10.93;9.73;;;4.70;99.90;;;;;;5073052;28;20531;-66
2024/01/17 09:46:48;;;;;;;10.00;8.97;;;4.70;99.90;;;;;;5073008;28;20167;-66
2024/01/17 09:49:14;;;;;;;9.90;8.47;;;4.80;99.90;;;;;;5073784;28;20498;-67
2024/01/17 09:51:41;;;;;;;10.63;9.00;;;4.90;99.90;;;;;;5072524;28;20900;-67
2024/01/17 09:54:07;;;;;;;13.53;10.90;;;4.90;99.90;;;;;;5072298;28;20213;-67
2024/01/17 09:56:33;;;;;;;10.83;8.83;;;4.80;99.90;;;;;;5072310;28;20517;-67
2024/01/17 09:59:14;;;;;;;12.53;9.30;;;4.90;99.90;;;;;;5072033;28;20404;-68
2024/01/17 10:01:40;;;;;;;14.33;11.63;;;5.20;99.90;;;;;;5072608;28;20382;-67
2024/01/17 10:04:08;;;;;;;12.93;10.97;;;5.30;99.90;;;;;;5071608;28;20513;-67
2024/01/17 10:06:35;;;;;;;15.37;11.37;;;5.20;99.90;;;;;;5072472;28;20958;-67
2024/01/17 10:09:01;;;;;;;13.80;10.73;;;5.00;99.90;;;;;;5074103;28;20401;-67
2024/01/17 10:11:26;;;;;;;19.30;13.83;;;5.20;99.90;;;;;;5075701;28;20440;-67
2024/01/17 10:13:52;;;;;;;14.73;13.10;;;5.30;99.90;;;;;;5075760;28;20448;-67
2024/01/17 10:16:18;;;;;;;15.33;11.80;;;5.30;99.90;;;;;;5075837;28;20167;-67
2024/01/17 10:18:43;;;;;;;18.13;15.83;;;5.20;99.90;;;;;;5076034;28;20401;-67
2024/01/17 10:21:09;;;;;;;17.87;10.20;;;5.20;99.90;;;;;;5075857;28;20166;-67
2024/01/17 10:23:38;;;;;;;13.43;10.10;;;5.20;99.90;;;;;;5075779;28;20213;-67
2024/01/17 10:26:04;;;;;;;13.13;9.77;;;5.20;99.90;;;;;;5075583;28;20484;-67
2024/01/17 10:28:33;;;;;;;11.17;10.10;;;5.20;99.90;;;;;;5075288;28;20399;-67
2024/01/17 10:31:02;;;;;;;10.57;9.47;;;5.30;99.90;;;;;;5076006;28;20877;-66
2024/01/17 10:33:27;;;;;;;12.33;10.80;;;5.50;99.90;;;;;;5075378;28;20496;-67
2024/01/17 10:35:53;;;;;;;14.50;11.43;;;5.50;99.90;;;;;;5075483;28;20496;-67
2024/01/17 10:38:20;;;;;;;19.80;14.47;;;5.40;99.90;;;;;;5075744;28;20312;-68
2024/01/17 10:40:45;;;;;;;12.70;11.37;;;5.40;99.90;;;;;;5075571;28;20679;-66
2024/01/17 10:43:12;;;;;;;13.20;8.33;;;5.60;99.90;;;;;;5075078;28;20451;-66
2024/01/17 10:45:43;;;;;;;11.00;10.00;;;5.50;99.90;;;;;;5075587;28;20253;-68
2024/01/17 10:48:10;;;;;;;11.67;10.43;;;5.40;99.90;;;;;;5075579;28;20381;-67
2024/01/17 10:50:35;;;;;;;13.73;12.30;;;5.30;99.90;;;;;;5075549;28;20401;-67
2024/01/17 10:53:08;;;;;;;11.73;10.53;;;5.50;99.90;;;;;;5075066;28;20475;-66
2024/01/17 10:55:35;;;;;;;12.50;11.20;;;5.50;99.90;;;;;;5075182;28;20259;-66
2024/01/17 10:58:09;;;;;;;17.33;12.80;;;5.40;99.90;;;;;;5075549;28;20560;-66
2024/01/17 11:00:38;;;;;;;23.93;15.17;;;5.30;99.90;;;;;;5075118;28;20477;-67
2024/01/17 11:03:08;;;;;;;20.97;15.13;;;5.50;99.90;;;;;;5074954;28;20457;-66
2024/01/17 11:05:42;;;;;;;17.20;14.60;;;5.60;99.90;;;;;;5074909;28;20983;-68
2024/01/17 11:08:09;;;;;;;13.57;11.13;;;5.60;99.90;;;;;;5075396;28;20393;-67
2024/01/17 11:10:35;;;;;;;18.63;15.93;;;5.70;99.90;;;;;;5074887;28;20502;-67
2024/01/17 11:13:02;;;;;;;17.20;13.87;;;5.80;99.90;;;;;;5074714;28;20427;-66
2024/01/17 11:15:29;;;;;;;17.30;14.47;;;5.80;99.90;;;;;;5075020;28;20422;-65
2024/01/17 11:17:59;;;;;;;20.43;13.37;;;5.90;99.90;;;;;;5074834;28;20406;-65
2024/01/17 11:20:25;;;;;;;15.80;13.73;;;5.90;99.90;;;;;;5074731;28;20392;-66
2024/01/17 11:22:51;;;;;;;13.53;11.97;;;5.80;99.90;;;;;;5074313;28;20444;-66
2024/01/17 11:25:36;;;;;;;13.27;11.07;;;5.70;99.90;;;;;;5056586;28;20171;-66
2024/01/17 11:28:19;;;;;;;13.43;12.07;;;5.50;99.90;;;;;;5075029;28;20402;-67
2024/01/17 11:30:57;;;;;;;16.87;12.10;;;5.50;99.90;;;;;;5074726;28;20388;-66
2024/01/17 11:33:25;;;;;;;23.83;17.50;;;5.80;99.90;;;;;;5074397;28;20422;-67
2024/01/17 11:35:53;;;;;;;16.80;13.47;;;5.80;99.90;;;;;;5074358;28;20442;-66
2024/01/17 11:38:24;;;;;;;16.00;13.70;;;5.70;99.90;;;;;;5074370;28;20412;-67
2024/01/17 11:40:55;;;;;;;12.93;10.87;;;5.70;99.90;;;;;;5074392;28;20460;-67
2024/01/17 11:43:21;;;;;;;13.63;9.43;;;5.70;99.90;;;;;;5074104;28;20983;-68
2024/01/17 11:45:50;;;;;;;7.70;6.80;;;5.80;99.90;;;;;;5074303;28;20413;-67
2024/01/17 11:48:23;;;;;;;11.07;8.37;;;5.70;99.90;;;;;;5074104;28;20169;-67
2024/01/17 11:51:01;;;;;;;9.47;8.53;;;5.70;99.90;;;;;;5074068;28;20409;-68
2024/01/17 11:53:28;;;;;;;9.50;8.60;;;5.70;99.90;;;;;;5056107;28;20502;-68
2024/01/17 11:55:58;;;;;;;10.10;8.70;;;5.80;99.90;;;;;;5074107;28;20406;-68
2024/01/17 11:58:41;;;;;;;7.80;6.03;;;6.00;99.90;;;;;;5073864;28;20404;-67
2024/01/17 12:01:22;;;;;;;7.70;6.97;;;6.00;99.90;;;;;;5074515;28;20913;-68
2024/01/17 12:03:51;;;;;;;8.60;7.13;;;6.10;99.90;;;;;;5073090;28;20461;-67
2024/01/17 12:06:18;;;;;;;6.97;5.30;;;6.20;99.90;;;;;;5073766;28;20406;-66
2024/01/17 12:08:44;;;;;;;7.90;6.60;;;6.20;99.90;;;;;;5073939;28;20413;-66
2024/01/17 12:11:10;;;;;;;8.60;6.67;;;6.20;99.90;;;;;;5073822;28;20407;-67
2024/01/17 12:13:37;;;;;;;6.97;6.27;;;6.20;99.90;;;;;;5073837;28;20718;-69
2024/01/17 12:16:04;;;;;;;6.97;6.37;;;6.30;99.90;;;;;;5073617;28;20224;-66
2024/01/17 12:18:31;;;;;;;7.57;6.17;;;6.30;99.90;;;;;;5072919;28;20413;-67
2024/01/17 12:21:01;;;;;;;8.30;6.20;;;6.40;99.90;;;;;;5072689;28;20413;-68
2024/01/17 12:23:28;;;;;;;8.70;6.17;;;6.40;99.90;;;;;;5073129;28;20461;-67
2024/01/17 12:25:55;;;;;;;6.20;5.60;;;6.60;99.90;;;;;;5073345;28;20399;-65
2024/01/17 12:28:22;;;;;;;5.57;4.90;;;6.70;99.90;;;;;;5073586;28;20491;-67
2024/01/17 12:31:06;;;;;;;7.03;6.10;;;6.80;99.90;;;;;;5073227;28;20494;-67
2024/01/17 12:33:34;;;;;;;5.73;5.23;;;7.10;99.90;;;;;;5073371;28;20430;-69
2024/01/17 12:36:01;;;;;;;7.80;5.20;;;7.10;99.90;;;;;;5073157;28;20830;-66